Lynch, Kentucky
Current Conditions -  °F | °C
As of 2:15 PM on Friday 21 Nov 2014 (Local Time) from KLNP Reporting Station
Clear Clear  
Wind Chill: 41°   Ceiling: Unl
Heat Index: 41°   Visibility: 10mi
Dew Point:   Wind: 3mph
Humidity: 23%   Direction: 320°NW
Pressure: 30.38"   Gusts: NA
Location:  36.97°N, 82.92°W
Report Text: KLNP 211915Z AUTO 32003KT 10SM CLR 05/M15 A3038 RMK AO2
Loading
Personal Weather Stations






























Interactive Weather Map New forecast layout! Learn more

10-Day Weather Forecast

Advertisements
Track Severe Weather on mobile